sensor_id;sensor_type;location;lat;lon;timestamp;pressure;altitude;pressure_sealevel;temperature;humidity
22775;BME280;11554;51.106;3.684;2023-04-24T00:00:00;100126.03;;;8.33;100.0
22775;BME280;11554;51.106;3.684;2023-04-24T00:05:01;100126.36;;;8.32;100.0
22775;BME280;11554;51.106;3.684;2023-04-24T00:10:00;100120.92;;;8.31;100.0
22775;BME280;11554;51.106;3.684;2023-04-24T00:15:00;100123.79;;;8.28;100.0
22775;BME280;11554;51.106;3.684;2023-04-24T00:20:00;100120.2;;;8.26;100.0
22775;BME280;11554;51.106;3.684;2023-04-24T00:25:00;100119.97;;;8.26;100.0
22775;BME280;11554;51.106;3.684;2023-04-24T00:30:00;100131.79000000001;;;8.25;100.0
22775;BME280;11554;51.106;3.684;2023-04-24T00:35:00;100127.86;;;8.25;100.0
22775;BME280;11554;51.106;3.684;2023-04-24T00:40:00;100123.56999999999;;;8.22;100.0
22775;BME280;11554;51.106;3.684;2023-04-24T00:45:00;100125.11;;;8.24;100.0
22775;BME280;11554;51.106;3.684;2023-04-24T00:50:01;100123.97;;;8.24;100.0
22775;BME280;11554;51.106;3.684;2023-04-24T00:55:00;100129.01000000001;;;8.24;100.0
22775;BME280;11554;51.106;3.684;2023-04-24T01:00:00;100132.36;;;8.24;100.0
22775;BME280;11554;51.106;3.684;2023-04-24T01:05:00;100132.51000000001;;;8.24;100.0
22775;BME280;11554;51.106;3.684;2023-04-24T01:10:00;100135.23;;;8.24;100.0
22775;BME280;11554;51.106;3.684;2023-04-24T01:15:00;100134.07999999999;;;8.23;100.0
22775;BME280;11554;51.106;3.684;2023-04-24T01:20:00;100136.25;;;8.22;100.0
22775;BME280;11554;51.106;3.684;2023-04-24T01:25:00;100138.56;;;8.20;100.0
22775;BME280;11554;51.106;3.684;2023-04-24T01:30:00;100140.88;;;8.18;100.0
22775;BME280;11554;51.106;3.684;2023-04-24T01:35:00;100143.34;;;8.15;100.0
22775;BME280;11554;51.106;3.684;2023-04-24T01:40:00;100144.08;;;8.11;100.0
22775;BME280;11554;51.106;3.684;2023-04-24T01:45:00;100142.21;;;8.10;100.0
22775;BME280;11554;51.106;3.684;2023-04-24T01:50:00;100149.7;;;8.09;100.0
22775;BME280;11554;51.106;3.684;2023-04-24T01:55:00;100141.90999999999;;;8.07;100.0
22775;BME280;11554;51.106;3.684;2023-04-24T02:00:00;100140.9;;;8.05;100.0
22775;BME280;11554;51.106;3.684;2023-04-24T02:05:00;100146.5;;;8.04;100.0
22775;BME280;11554;51.106;3.684;2023-04-24T02:10:00;100155.9;;;8.04;100.0
22775;BME280;11554;51.106;3.684;2023-04-24T02:15:00;100161.84;;;8.05;100.0
22775;BME280;11554;51.106;3.684;2023-04-24T02:20:00;100172.74;;;8.05;100.0
22775;BME280;11554;51.106;3.684;2023-04-24T02:25:00;100174.39;;;8.05;100.0
22775;BME280;11554;51.106;3.684;2023-04-24T02:30:00;100180.78;;;8.06;100.0
22775;BME280;11554;51.106;3.684;2023-04-24T02:35:00;100184.79999999999;;;8.10;100.0
22775;BME280;11554;51.106;3.684;2023-04-24T02:40:00;100190.20000000001;;;8.10;100.0
22775;BME280;11554;51.106;3.684;2023-04-24T02:45:00;100197.03;;;8.08;100.0
22775;BME280;11554;51.106;3.684;2023-04-24T02:50:00;100203.52;;;8.09;100.0
22775;BME280;11554;51.106;3.684;2023-04-24T02:55:00;100202.56000000001;;;8.07;100.0
22775;BME280;11554;51.106;3.684;2023-04-24T03:00:00;100208.26;;;8.06;100.0
22775;BME280;11554;51.106;3.684;2023-04-24T03:05:00;100218.55;;;8.03;100.0
22775;BME280;11554;51.106;3.684;2023-04-24T03:10:00;100221.98;;;7.99;100.0
22775;BME280;11554;51.106;3.684;2023-04-24T03:15:00;100231.31;;;7.89;100.0
22775;BME280;11554;51.106;3.684;2023-04-24T03:20:00;100240.66;;;7.84;100.0
22775;BME280;11554;51.106;3.684;2023-04-24T03:25:00;100245.81;;;7.80;100.0
22775;BME280;11554;51.106;3.684;2023-04-24T03:30:00;100251.83;;;7.79;100.0
22775;BME280;11554;51.106;3.684;2023-04-24T03:35:00;100266.47;;;7.79;100.0
22775;BME280;11554;51.106;3.684;2023-04-24T03:40:00;100272.99;;;7.77;100.0
22775;BME280;11554;51.106;3.684;2023-04-24T03:45:00;100280.78;;;7.73;100.0
22775;BME280;11554;51.106;3.684;2023-04-24T03:50:00;100286.35;;;7.66;100.0
22775;BME280;11554;51.106;3.684;2023-04-24T03:55:00;100291.04;;;7.63;100.0
22775;BME280;11554;51.106;3.684;2023-04-24T04:00:00;100302.03;;;7.60;100.0
22775;BME280;11554;51.106;3.684;2023-04-24T04:05:00;100311.23999999999;;;7.58;100.0
22775;BME280;11554;51.106;3.684;2023-04-24T04:10:00;100319.06999999999;;;7.57;100.0
22775;BME280;11554;51.106;3.684;2023-04-24T04:15:00;100322.34;;;7.54;100.0
22775;BME280;11554;51.106;3.684;2023-04-24T04:20:00;100330.56;;;7.50;100.0
22775;BME280;11554;51.106;3.684;2023-04-24T04:25:00;100346.3;;;7.48;100.0
22775;BME280;11554;51.106;3.684;2023-04-24T04:30:00;100354.22;;;7.45;100.0
22775;BME280;11554;51.106;3.684;2023-04-24T04:35:00;100357.56;;;7.41;100.0
22775;BME280;11554;51.106;3.684;2023-04-24T04:40:00;100365.52;;;7.40;100.0
22775;BME280;11554;51.106;3.684;2023-04-24T04:45:00;100373.87999999999;;;7.39;100.0
22775;BME280;11554;51.106;3.684;2023-04-24T04:50:00;100385.41;;;7.39;100.0
22775;BME280;11554;51.106;3.684;2023-04-24T04:55:00;100388.75;;;7.40;100.0
22775;BME280;11554;51.106;3.684;2023-04-24T05:00:00;100406.26999999999;;;7.40;100.0
22775;BME280;11554;51.106;3.684;2023-04-24T05:05:00;100411.56;;;7.40;100.0
22775;BME280;11554;51.106;3.684;2023-04-24T05:10:00;100421.3;;;7.42;100.0
22775;BME280;11554;51.106;3.684;2023-04-24T05:15:00;100438.12000000001;;;7.41;100.0
22775;BME280;11554;51.106;3.684;2023-04-24T05:20:00;100441.3;;;7.43;100.0
22775;BME280;11554;51.106;3.684;2023-04-24T05:25:00;100451.11;;;7.44;100.0
22775;BME280;11554;51.106;3.684;2023-04-24T05:30:00;100466.2;;;7.47;100.0
22775;BME280;11554;51.106;3.684;2023-04-24T05:35:00;100474.94;;;7.50;100.0
22775;BME280;11554;51.106;3.684;2023-04-24T05:40:00;100487.73999999999;;;7.55;100.0
22775;BME280;11554;51.106;3.684;2023-04-24T05:45:00;100495.14;;;7.59;100.0
22775;BME280;11554;51.106;3.684;2023-04-24T05:50:00;100503.5;;;7.63;100.0
22775;BME280;11554;51.106;3.684;2023-04-24T05:55:00;100509.93999999999;;;7.62;100.0
22775;BME280;11554;51.106;3.684;2023-04-24T06:00:00;100516.75;;;7.65;100.0
22775;BME280;11554;51.106;3.684;2023-04-24T06:05:00;100529.92;;;7.71;100.0
22775;BME280;11554;51.106;3.684;2023-04-24T06:10:00;100544.59000000001;;;7.78;100.0
22775;BME280;11554;51.106;3.684;2023-04-24T06:15:00;100554.39;;;7.88;100.0
22775;BME280;11554;51.106;3.684;2023-04-24T06:20:00;100562.59;;;7.91;100.0
22775;BME280;11554;51.106;3.684;2023-04-24T06:25:00;100572.63;;;8.01;100.0
22775;BME280;11554;51.106;3.684;2023-04-24T06:30:00;100584.77;;;8.32;100.0
22775;BME280;11554;51.106;3.684;2023-04-24T06:35:00;100590.88;;;8.55;100.0
22775;BME280;11554;51.106;3.684;2023-04-24T06:40:00;100601.26000000001;;;8.72;100.0
22775;BME280;11554;51.106;3.684;2023-04-24T06:45:00;100610.31;;;8.80;100.0
22775;BME280;11554;51.106;3.684;2023-04-24T06:50:00;100612.62000000001;;;8.89;100.0
22775;BME280;11554;51.106;3.684;2023-04-24T06:55:00;100621.06;;;9.00;100.0
22775;BME280;11554;51.106;3.684;2023-04-24T07:00:00;100633.91;;;9.02;100.0
22775;BME280;11554;51.106;3.684;2023-04-24T07:05:00;100635.24;;;8.96;100.0
22775;BME280;11554;51.106;3.684;2023-04-24T07:10:00;100648.38;;;8.94;100.0
22775;BME280;11554;51.106;3.684;2023-04-24T07:15:00;100654.86;;;9.01;100.0
22775;BME280;11554;51.106;3.684;2023-04-24T07:20:00;100662.57;;;9.66;100.0
22775;BME280;11554;51.106;3.684;2023-04-24T07:25:00;100666.95999999999;;;10.01;100.0
22775;BME280;11554;51.106;3.684;2023-04-24T07:30:00;100673.71;;;9.97;100.0
22775;BME280;11554;51.106;3.684;2023-04-24T07:35:00;100677.08;;;9.93;100.0
22775;BME280;11554;51.106;3.684;2023-04-24T07:40:00;100687.63;;;9.61;100.0
22775;BME280;11554;51.106;3.684;2023-04-24T07:45:00;100694.56;;;9.38;100.0
22775;BME280;11554;51.106;3.684;2023-04-24T07:50:00;100699.77;;;9.39;100.0
22775;BME280;11554;51.106;3.684;2023-04-24T07:55:00;100713.76000000001;;;9.47;100.0
22775;BME280;11554;51.106;3.684;2023-04-24T08:00:00;100721.0;;;9.74;100.0
22775;BME280;11554;51.106;3.684;2023-04-24T08:05:00;100714.81;;;10.80;100.0
22775;BME280;11554;51.106;3.684;2023-04-24T08:10:00;100717.14;;;12.12;100.0
22775;BME280;11554;51.106;3.684;2023-04-24T08:15:00;100722.38;;;12.23;96.16
22775;BME280;11554;51.106;3.684;2023-04-24T08:20:00;100737.92;;;10.93;94.15
22775;BME280;11554;51.106;3.684;2023-04-24T08:25:00;100746.17;;;11.47;98.08
22775;BME280;11554;51.106;3.684;2023-04-24T08:30:00;100743.56;;;12.40;90.99
22775;BME280;11554;51.106;3.684;2023-04-24T08:35:00;100758.48;;;11.44;90.99
22775;BME280;11554;51.106;3.684;2023-04-24T08:40:00;100772.77;;;10.95;91.27
22775;BME280;11554;51.106;3.684;2023-04-24T08:45:00;100775.51;;;11.70;90.45
22775;BME280;11554;51.106;3.684;2023-04-24T08:50:00;100782.12;;;11.27;89.58
22775;BME280;11554;51.106;3.684;2023-04-24T08:55:00;100786.21;;;11.49;88.93
22775;BME280;11554;51.106;3.684;2023-04-24T09:00:00;100793.03;;;10.97;91.17
22775;BME280;11554;51.106;3.684;2023-04-24T09:05:00;100799.83;;;10.72;92.79
22775;BME280;11554;51.106;3.684;2023-04-24T09:10:01;100802.84;;;10.82;93.12
22775;BME280;11554;51.106;3.684;2023-04-24T09:15:00;100805.36;;;11.05;93.46
22775;BME280;11554;51.106;3.684;2023-04-24T09:20:00;100814.15;;;11.19;92.16
22775;BME280;11554;51.106;3.684;2023-04-24T09:25:01;100811.71;;;11.51;89.52
22775;BME280;11554;51.106;3.684;2023-04-24T09:30:00;100812.72;;;11.64;87.85
22775;BME280;11554;51.106;3.684;2023-04-24T09:35:08;100828.85;;;12.14;86.84
22775;BME280;11554;51.106;3.684;2023-04-24T09:45:00;100843.54;;;12.08;84.53
22775;BME280;11554;51.106;3.684;2023-04-24T09:50:01;100852.76;;;12.25;82.87
22775;BME280;11554;51.106;3.684;2023-04-24T09:55:00;100849.18000000001;;;12.90;82.7
22775;BME280;11554;51.106;3.684;2023-04-24T10:00:00;100853.25;;;12.98;81.89
22775;BME280;11554;51.106;3.684;2023-04-24T10:05:00;100861.69;;;12.84;83.19
22775;BME280;11554;51.106;3.684;2023-04-24T10:10:00;100871.8;;;12.65;81.26
22775;BME280;11554;51.106;3.684;2023-04-24T10:15:00;100877.09999999999;;;13.63;83.24
22775;BME280;11554;51.106;3.684;2023-04-24T10:20:00;100873.17;;;13.39;77.88
22775;BME280;11554;51.106;3.684;2023-04-24T10:25:00;100881.04;;;13.59;79.98
22775;BME280;11554;51.106;3.684;2023-04-24T10:30:00;100872.02;;;13.69;78.51
22775;BME280;11554;51.106;3.684;2023-04-24T10:35:00;100882.14;;;14.55;73.72
22775;BME280;11554;51.106;3.684;2023-04-24T10:40:00;100893.09;;;13.69;76.29
22775;BME280;11554;51.106;3.684;2023-04-24T10:45:04;100897.34;;;14.98;74.12
22775;BME280;11554;51.106;3.684;2023-04-24T10:50:00;100909.59;;;13.94;73.66
22775;BME280;11554;51.106;3.684;2023-04-24T10:55:01;100904.22;;;14.08;75.3
22775;BME280;11554;51.106;3.684;2023-04-24T11:05:02;100911.84;;;15.81;69.93
22775;BME280;11554;51.106;3.684;2023-04-24T11:10:00;100913.17;;;15.34;72.08
22775;BME280;11554;51.106;3.684;2023-04-24T11:15:01;100916.52;;;16.17;70.91
22775;BME280;11554;51.106;3.684;2023-04-24T11:20:01;100912.01999999999;;;16.79;69.15
22775;BME280;11554;51.106;3.684;2023-04-24T11:25:00;100920.08;;;17.46;68.2
22775;BME280;11554;51.106;3.684;2023-04-24T11:30:00;100931.43;;;16.27;67.0
22775;BME280;11554;51.106;3.684;2023-04-24T11:35:01;100937.33;;;14.85;72.68
22775;BME280;11554;51.106;3.684;2023-04-24T11:40:00;100934.81;;;14.18;72.84
22775;BME280;11554;51.106;3.684;2023-04-24T11:45:00;100943.76999999999;;;14.41;74.35
22775;BME280;11554;51.106;3.684;2023-04-24T11:50:00;100937.49;;;16.12;72.43
22775;BME280;11554;51.106;3.684;2023-04-24T11:55:00;100944.72;;;17.57;69.39
22775;BME280;11554;51.106;3.684;2023-04-24T12:00:00;100945.98;;;16.46;67.39
22775;BME280;11554;51.106;3.684;2023-04-24T12:05:00;100950.57;;;16.51;69.71
22775;BME280;11554;51.106;3.684;2023-04-24T12:10:00;100956.67;;;16.19;65.82
22775;BME280;11554;51.106;3.684;2023-04-24T12:15:00;100967.88;;;16.31;66.19
22775;BME280;11554;51.106;3.684;2023-04-24T12:20:01;100967.26999999999;;;15.72;67.2
22775;BME280;11554;51.106;3.684;2023-04-24T12:25:01;100978.07;;;15.77;68.58
22775;BME280;11554;51.106;3.684;2023-04-24T12:30:00;100969.26;;;16.30;66.46
22775;BME280;11554;51.106;3.684;2023-04-24T12:35:00;100973.11;;;17.42;66.32
22775;BME280;11554;51.106;3.684;2023-04-24T12:40:01;100973.65999999999;;;16.93;62.23
22775;BME280;11554;51.106;3.684;2023-04-24T12:45:01;100985.27;;;16.79;63.87
22775;BME280;11554;51.106;3.684;2023-04-24T12:50:00;100978.06;;;17.11;66.04
22775;BME280;11554;51.106;3.684;2023-04-24T12:55:00;100983.59;;;17.12;64.3
22775;BME280;11554;51.106;3.684;2023-04-24T13:00:00;100978.17;;;16.90;63.64
22775;BME280;11554;51.106;3.684;2023-04-24T13:05:00;100978.27;;;17.90;62.09
22775;BME280;11554;51.106;3.684;2023-04-24T13:10:00;100977.48;;;18.52;61.86
22775;BME280;11554;51.106;3.684;2023-04-24T13:15:00;100968.34999999999;;;18.15;59.59
22775;BME280;11554;51.106;3.684;2023-04-24T13:20:00;100977.42;;;18.06;61.37
22775;BME280;11554;51.106;3.684;2023-04-24T13:25:00;100974.41;;;18.20;62.64
22775;BME280;11554;51.106;3.684;2023-04-24T13:30:00;100980.59;;;17.63;59.66
22775;BME280;11554;51.106;3.684;2023-04-24T13:35:00;100977.29000000001;;;18.04;62.89
22775;BME280;11554;51.106;3.684;2023-04-24T13:40:00;100972.34;;;18.62;62.03
22775;BME280;11554;51.106;3.684;2023-04-24T13:45:00;100980.08;;;18.97;61.8
22775;BME280;11554;51.106;3.684;2023-04-24T13:50:00;100984.89;;;17.37;63.1
22775;BME280;11554;51.106;3.684;2023-04-24T13:55:00;100978.7;;;17.75;62.54
22775;BME280;11554;51.106;3.684;2023-04-24T14:00:00;100980.0;;;18.28;59.64
22775;BME280;11554;51.106;3.684;2023-04-24T14:05:00;100976.98000000001;;;18.41;60.21
22775;BME280;11554;51.106;3.684;2023-04-24T14:10:00;100971.31000000001;;;18.24;60.34
22775;BME280;11554;51.106;3.684;2023-04-24T14:15:00;100973.79;;;17.61;60.91
22775;BME280;11554;51.106;3.684;2023-04-24T14:20:00;100971.45000000001;;;18.34;63.55
22775;BME280;11554;51.106;3.684;2023-04-24T14:25:00;100967.94;;;18.29;58.48
22775;BME280;11554;51.106;3.684;2023-04-24T14:30:00;100962.44;;;18.01;57.44
22775;BME280;11554;51.106;3.684;2023-04-24T14:35:00;100973.8;;;16.88;61.68
22775;BME280;11554;51.106;3.684;2023-04-24T14:40:00;100970.26;;;17.04;60.93
22775;BME280;11554;51.106;3.684;2023-04-24T14:45:00;100978.19;;;16.18;63.34
22775;BME280;11554;51.106;3.684;2023-04-24T14:50:00;100983.31;;;16.30;63.93
22775;BME280;11554;51.106;3.684;2023-04-24T14:55:00;100986.3;;;15.95;63.94
22775;BME280;11554;51.106;3.684;2023-04-24T15:00:00;100982.05;;;16.00;63.35
22775;BME280;11554;51.106;3.684;2023-04-24T15:05:00;100987.83;;;15.76;63.64
22775;BME280;11554;51.106;3.684;2023-04-24T15:10:00;100987.3;;;16.10;65.58
22775;BME280;11554;51.106;3.684;2023-04-24T15:15:00;100990.75;;;15.95;64.49
22775;BME280;11554;51.106;3.684;2023-04-24T15:20:00;100994.87000000001;;;15.84;65.56
22775;BME280;11554;51.106;3.684;2023-04-24T15:25:00;100994.56;;;15.39;63.32
22775;BME280;11554;51.106;3.684;2023-04-24T15:30:00;100989.53;;;15.11;65.46
22775;BME280;11554;51.106;3.684;2023-04-24T15:35:00;100991.16;;;15.40;67.1
22775;BME280;11554;51.106;3.684;2023-04-24T15:40:00;100994.62;;;15.44;65.82
22775;BME280;11554;51.106;3.684;2023-04-24T15:45:00;100999.03;;;15.63;65.72
22775;BME280;11554;51.106;3.684;2023-04-24T15:50:00;100989.28;;;16.49;63.21
22775;BME280;11554;51.106;3.684;2023-04-24T15:55:00;100987.83;;;15.75;62.88
22775;BME280;11554;51.106;3.684;2023-04-24T16:00:00;100997.33;;;14.97;66.9
22775;BME280;11554;51.106;3.684;2023-04-24T16:05:00;100998.63;;;15.12;67.54
22775;BME280;11554;51.106;3.684;2023-04-24T16:10:00;100994.32;;;14.89;66.92
22775;BME280;11554;51.106;3.684;2023-04-24T16:15:00;100995.17;;;14.69;68.94
22775;BME280;11554;51.106;3.684;2023-04-24T16:20:00;100991.53;;;14.80;70.44
22775;BME280;11554;51.106;3.684;2023-04-24T16:25:00;100993.91;;;14.60;68.75
22775;BME280;11554;51.106;3.684;2023-04-24T16:30:00;100994.97;;;14.39;69.05
22775;BME280;11554;51.106;3.684;2023-04-24T16:35:00;101005.48999999999;;;14.31;70.19
22775;BME280;11554;51.106;3.684;2023-04-24T16:40:00;101007.86;;;14.11;70.56
22775;BME280;11554;51.106;3.684;2023-04-24T16:45:00;101010.83;;;13.84;71.25
22775;BME280;11554;51.106;3.684;2023-04-24T16:50:00;101018.08;;;13.76;72.86
22775;BME280;11554;51.106;3.684;2023-04-24T16:55:00;101023.53;;;13.61;71.66
22775;BME280;11554;51.106;3.684;2023-04-24T17:00:00;101024.8;;;13.29;72.85
22775;BME280;11554;51.106;3.684;2023-04-24T17:05:00;101026.61;;;13.10;72.62
22775;BME280;11554;51.106;3.684;2023-04-24T17:10:00;101026.56;;;13.49;73.98
22775;BME280;11554;51.106;3.684;2023-04-24T17:15:00;101027.94;;;14.00;73.11
22775;BME280;11554;51.106;3.684;2023-04-24T17:20:00;101033.74;;;14.21;71.91
22775;BME280;11554;51.106;3.684;2023-04-24T17:25:00;101034.79999999999;;;13.74;72.87
22775;BME280;11554;51.106;3.684;2023-04-24T17:30:00;101037.66;;;12.98;73.41
22775;BME280;11554;51.106;3.684;2023-04-24T17:35:00;101030.67;;;12.66;74.09
22775;BME280;11554;51.106;3.684;2023-04-24T17:40:00;101036.06;;;12.48;74.48
22775;BME280;11554;51.106;3.684;2023-04-24T17:45:00;101042.31999999999;;;12.43;75.63
22775;BME280;11554;51.106;3.684;2023-04-24T17:50:00;101045.65;;;12.37;76.31
22775;BME280;11554;51.106;3.684;2023-04-24T17:55:00;101048.49;;;12.08;77.27
22775;BME280;11554;51.106;3.684;2023-04-24T18:00:00;101050.42;;;11.72;78.78
22775;BME280;11554;51.106;3.684;2023-04-24T18:05:00;101053.34;;;11.70;79.83
22775;BME280;11554;51.106;3.684;2023-04-24T18:10:00;101055.38;;;11.52;80.36
22775;BME280;11554;51.106;3.684;2023-04-24T18:15:00;101057.67;;;11.36;81.27
22775;BME280;11554;51.106;3.684;2023-04-24T18:20:00;101059.04000000001;;;11.10;83.31
22775;BME280;11554;51.106;3.684;2023-04-24T18:25:00;101060.92;;;10.88;85.4
22775;BME280;11554;51.106;3.684;2023-04-24T18:30:00;101067.33;;;10.59;87.4
22775;BME280;11554;51.106;3.684;2023-04-24T18:35:00;101075.09;;;10.39;88.08
22775;BME280;11554;51.106;3.684;2023-04-24T18:40:00;101085.94;;;10.28;88.33
22775;BME280;11554;51.106;3.684;2023-04-24T18:45:00;101086.06;;;10.08;89.08
22775;BME280;11554;51.106;3.684;2023-04-24T18:50:00;101085.38;;;9.95;89.72
22775;BME280;11554;51.106;3.684;2023-04-24T18:55:00;101092.4;;;9.87;90.94
22775;BME280;11554;51.106;3.684;2023-04-24T19:00:00;101094.86;;;9.77;91.61
22775;BME280;11554;51.106;3.684;2023-04-24T19:05:00;101103.63;;;9.69;92.69
22775;BME280;11554;51.106;3.684;2023-04-24T19:10:00;101104.51000000001;;;9.60;93.61
22775;BME280;11554;51.106;3.684;2023-04-24T19:15:00;101113.56;;;9.54;93.96
22775;BME280;11554;51.106;3.684;2023-04-24T19:20:00;101117.6;;;9.45;94.52
22775;BME280;11554;51.106;3.684;2023-04-24T19:25:00;101117.02;;;9.41;94.32
22775;BME280;11554;51.106;3.684;2023-04-24T19:30:00;101126.54;;;9.32;95.0
22775;BME280;11554;51.106;3.684;2023-04-24T19:35:00;101124.99;;;9.27;95.18
22775;BME280;11554;51.106;3.684;2023-04-24T19:40:00;101130.51000000001;;;9.22;94.86
22775;BME280;11554;51.106;3.684;2023-04-24T19:45:00;101134.2;;;9.16;95.44
22775;BME280;11554;51.106;3.684;2023-04-24T19:50:00;101138.79;;;9.06;95.63
22775;BME280;11554;51.106;3.684;2023-04-24T19:55:00;101144.08;;;8.96;96.5
22775;BME280;11554;51.106;3.684;2023-04-24T20:00:00;101142.64;;;8.91;96.1
22775;BME280;11554;51.106;3.684;2023-04-24T20:05:00;101144.34;;;8.85;95.89
22775;BME280;11554;51.106;3.684;2023-04-24T20:10:00;101139.58;;;8.78;96.18
22775;BME280;11554;51.106;3.684;2023-04-24T20:15:01;101138.47;;;8.71;96.39
22775;BME280;11554;51.106;3.684;2023-04-24T20:20:00;101143.14;;;8.64;96.73
22775;BME280;11554;51.106;3.684;2023-04-24T20:25:00;101143.66;;;8.60;97.08
22775;BME280;11554;51.106;3.684;2023-04-24T20:30:00;101137.39;;;8.49;97.57
22775;BME280;11554;51.106;3.684;2023-04-24T20:35:00;101145.37;;;8.40;97.93
22775;BME280;11554;51.106;3.684;2023-04-24T20:40:00;101138.08;;;8.33;98.3
22775;BME280;11554;51.106;3.684;2023-04-24T20:45:00;101140.55;;;8.25;98.92
22775;BME280;11554;51.106;3.684;2023-04-24T20:50:00;101140.03;;;8.23;98.56
22775;BME280;11554;51.106;3.684;2023-04-24T20:55:00;101137.05;;;8.18;98.94
22775;BME280;11554;51.106;3.684;2023-04-24T21:00:00;101132.7;;;8.12;98.75
22775;BME280;11554;51.106;3.684;2023-04-24T21:05:00;101126.31;;;8.06;98.67
22775;BME280;11554;51.106;3.684;2023-04-24T21:10:00;101128.7;;;8.02;98.07
22775;BME280;11554;51.106;3.684;2023-04-24T21:15:00;101129.45999999999;;;7.94;97.49
22775;BME280;11554;51.106;3.684;2023-04-24T21:20:00;101125.87;;;7.85;98.05
22775;BME280;11554;51.106;3.684;2023-04-24T21:25:00;101119.75;;;7.75;98.17
22775;BME280;11554;51.106;3.684;2023-04-24T21:30:00;101121.84999999999;;;7.66;97.99
22775;BME280;11554;51.106;3.684;2023-04-24T21:35:00;101120.04;;;7.57;98.46
22775;BME280;11554;51.106;3.684;2023-04-24T21:40:00;101122.69;;;7.53;98.89
22775;BME280;11554;51.106;3.684;2023-04-24T21:45:00;101128.02;;;7.46;98.76
22775;BME280;11554;51.106;3.684;2023-04-24T21:50:00;101128.68;;;7.43;99.31
22775;BME280;11554;51.106;3.684;2023-04-24T21:55:00;101123.01999999999;;;7.43;99.24
22775;BME280;11554;51.106;3.684;2023-04-24T22:00:00;101123.8;;;7.43;99.9
22775;BME280;11554;51.106;3.684;2023-04-24T22:05:00;101126.65;;;7.40;100.0
22775;BME280;11554;51.106;3.684;2023-04-24T22:10:00;101123.53;;;7.41;100.0
22775;BME280;11554;51.106;3.684;2023-04-24T22:15:00;101127.76;;;7.41;100.0
22775;BME280;11554;51.106;3.684;2023-04-24T22:20:00;101132.95000000001;;;7.40;100.0
22775;BME280;11554;51.106;3.684;2023-04-24T22:25:00;101141.6;;;7.40;100.0
22775;BME280;11554;51.106;3.684;2023-04-24T22:30:00;101140.69;;;7.40;100.0
22775;BME280;11554;51.106;3.684;2023-04-24T22:35:00;101137.34;;;7.41;100.0
22775;BME280;11554;51.106;3.684;2023-04-24T22:40:00;101140.11;;;7.41;100.0
22775;BME280;11554;51.106;3.684;2023-04-24T22:45:00;101138.97;;;7.41;100.0
22775;BME280;11554;51.106;3.684;2023-04-24T22:50:00;101138.37;;;7.39;100.0
22775;BME280;11554;51.106;3.684;2023-04-24T22:55:00;101136.61;;;7.37;100.0
22775;BME280;11554;51.106;3.684;2023-04-24T23:00:01;101136.55;;;7.33;100.0
22775;BME280;11554;51.106;3.684;2023-04-24T23:05:00;101135.20999999999;;;7.31;100.0
22775;BME280;11554;51.106;3.684;2023-04-24T23:10:00;101134.76000000001;;;7.28;100.0
22775;BME280;11554;51.106;3.684;2023-04-24T23:15:00;101138.58;;;7.26;100.0
22775;BME280;11554;51.106;3.684;2023-04-24T23:20:00;101138.0;;;7.28;100.0
22775;BME280;11554;51.106;3.684;2023-04-24T23:25:00;101131.1;;;7.26;100.0
22775;BME280;11554;51.106;3.684;2023-04-24T23:30:00;101131.83;;;7.26;100.0
22775;BME280;11554;51.106;3.684;2023-04-24T23:35:00;101140.75;;;7.25;100.0
22775;BME280;11554;51.106;3.684;2023-04-24T23:40:00;101145.29;;;7.24;100.0
22775;BME280;11554;51.106;3.684;2023-04-24T23:45:00;101145.83;;;7.23;100.0
22775;BME280;11554;51.106;3.684;2023-04-24T23:50:00;101145.34;;;7.22;100.0
22775;BME280;11554;51.106;3.684;2023-04-24T23:55:00;101151.11;;;7.21;100.0
